Upstream stations:
Downstream station:
SHEF ID: WETO2 North Canadian River near Wetumk
STATION TYPE:
Regulating: Stage = 14.00, Flow = 9630
PRECIP STAGE RIV-FLOW BAT-LOAD
in ft cfs volt
Ccp-Rev Ccp-Rev Ccp-Rev Ccp-Rev
(US/Central)
02/26 00:00 0.00 5.77 220 11.14
02/26 01:00 0.00 5.74 210 11.14
02/26 02:00 0.00 5.73 207 11.14
02/26 03:00 0.00 5.73 207 11.14
02/26 04:00 0.00 5.73 207 11.14
02/26 05:00 0.00 5.72 204 11.14
02/26 06:00 0.00 5.71 200 11.14
02/26 07:00 0.00 5.68 191 11.06
02/26 08:00 0.00 5.67 188 11.06
02/26 09:00 0.00 5.68 191 11.14
02/26 10:00 0.00 5.68 191 11.22
02/26 11:00 0.00 5.79 227 11.37
02/26 12:00 0.00 5.82 237 11.46
02/26 13:00 0.05 5.79 227 11.37
02/26 14:00 0.12 5.78 223 11.46
02/26 15:00 0.09 5.74 210 11.53
02/26 16:00 0.11 5.72 204 11.53
02/26 17:00 0.07 5.71 200 11.46
02/26 18:00 0.03 5.72 204 11.37
02/26 19:00 0.00 5.74 210 11.37
02/26 20:00 0.00 5.75 213 11.30
02/26 21:00 0.00 5.77 220 11.30
02/26 22:00 0.00 5.77 220 11.30
02/26 23:00 0.00 5.79 227 11.30